Terminal Aerodrome Forecast
Issued by NWS Grand Forks, ND

Home | Current Version | Previous Version | Text Only | Print | Product List | Glossary Off
Versions: 1 2 3 4 5 6 7 8 9 10 11 12 13 14 15 16 17

000
FTUS43 KFGF 081128
TAFFAR
TAF
KFAR 081128Z 0812/0912 32016KT P6SM OVC040
      TEMPO 0812/0816 4SM -SN OVC015
     FM081600 32014KT P6SM OVC035
      TEMPO 0816/0820 OVC015
     FM090400 31009KT P6SM BKN035=

USA.gov is the U.S. government's official web portal to all federal, state and local government web resources and services.